Time;durP1;ratioP1;P1;durP2;ratioP2;P2;SDS_P1;SDS_P2;PMS_P1;PMS_P2;Temp;Humidity;BMP_temperature;BMP_pressure;BME280_temperature;BME280_humidity;BME280_pressure;Samples;Min_cycle;Max_cycle;Signal;HPM_P1;HPM_P2
2023/06/28 00:01:41;;;;;;;6.32;4.43;;;;;;;19.35;77.65;98967.56;4980100;28;20088;-88
2023/06/28 00:04:06;;;;;;;9.15;4.40;;;;;;;19.34;78.16;98963.22;4993665;28;20026;-88
2023/06/28 00:06:32;;;;;;;11.38;4.80;;;;;;;19.28;78.46;98967.28;5007404;28;20041;-88
2023/06/28 00:08:58;;;;;;;9.10;4.80;;;;;;;19.28;78.49;98970.03;4945087;28;20037;-88
2023/06/28 00:11:25;;;;;;;7.28;4.45;;;;;;;19.24;78.15;98958.22;4944134;28;20030;-89
2023/06/28 00:13:51;;;;;;;5.53;4.45;;;;;;;19.34;78.06;98972.22;4965869;28;20042;-89
2023/06/28 00:16:16;;;;;;;6.82;4.57;;;;;;;19.33;78.20;98972.56;4980256;28;20030;-89
2023/06/28 00:18:43;;;;;;;7.03;4.53;;;;;;;19.36;77.84;98967.22;4963839;28;20045;-88
2023/06/28 00:21:08;;;;;;;8.55;4.60;;;;;;;19.42;77.93;98975.19;4979617;28;20485;-88
2023/06/28 00:23:34;;;;;;;11.35;4.05;;;;;;;19.43;77.16;98958.47;4963918;28;20037;-87
2023/06/28 00:25:59;;;;;;;11.65;4.95;;;;;;;19.46;77.88;98963.25;4980020;28;20037;-89
2023/06/28 00:28:25;;;;;;;6.88;4.43;;;;;;;19.40;77.80;98959.13;4963211;28;20046;-89
2023/06/28 00:30:50;;;;;;;6.20;4.47;;;;;;;19.42;77.60;98948.69;4979752;28;20105;-89
2023/06/28 00:33:19;;;;;;;8.93;4.63;;;;;;;19.50;77.07;98949.72;4995577;28;20026;-88
2023/06/28 00:35:46;;;;;;;9.63;4.53;;;;;;;19.53;77.26;98955.31;4964531;28;20130;-88
2023/06/28 00:38:12;;;;;;;7.57;4.47;;;;;;;19.41;77.37;98949.03;4963406;28;20065;-88
2023/06/28 00:40:37;;;;;;;6.68;4.40;;;;;;;19.38;77.18;98954.03;4995580;28;20026;-88
2023/06/28 00:43:02;;;;;;;7.65;4.20;;;;;;;19.34;77.03;98952.28;4979311;28;20393;-88
2023/06/28 00:45:28;;;;;;;7.35;4.32;;;;;;;19.30;76.95;98945.91;4978638;28;20026;-88
2023/06/28 00:47:53;;;;;;;8.52;4.40;;;;;;;19.30;77.07;98943.19;4995341;28;20026;-88
2023/06/28 00:50:19;;;;;;;8.73;4.45;;;;;;;19.27;77.51;98950.13;4962355;28;20030;-88
2023/06/28 00:52:44;;;;;;;8.07;4.38;;;;;;;19.28;77.56;98959.09;4995915;28;20034;-88
2023/06/28 00:55:10;;;;;;;7.03;4.28;;;;;;;19.29;76.92;98957.97;4978549;28;20030;-88
2023/06/28 00:57:36;;;;;;;9.65;4.35;;;;;;;19.22;77.63;98955.81;4979173;28;20026;-89
2023/06/28 01:00:05;;;;;;;7.68;4.60;;;;;;;19.14;77.48;98949.28;4979151;28;20050;-88
2023/06/28 01:02:30;;;;;;;7.10;4.07;;;;;;;19.25;77.22;98965.25;4979993;28;20117;-89
2023/06/28 01:04:57;;;;;;;8.45;4.32;;;;;;;19.22;77.33;98964.00;4963289;28;20049;-89
2023/06/28 01:07:27;;;;;;;5.78;4.00;;;;;;;19.25;77.47;98962.53;4979721;28;20031;-88
2023/06/28 01:09:56;;;;;;;6.20;4.47;;;;;;;19.21;76.80;98947.94;4979772;28;20090;-88
2023/06/28 01:12:21;;;;;;;7.78;4.68;;;;;;;19.23;77.40;98959.31;4978687;28;20105;-88
2023/06/28 01:14:47;;;;;;;7.97;4.22;;;;;;;19.21;76.89;98956.91;4978806;28;20088;-88
2023/06/28 01:17:12;;;;;;;9.52;3.92;;;;;;;19.18;77.35;98946.69;4978864;28;20030;-88
2023/06/28 01:19:39;;;;;;;9.73;4.72;;;;;;;19.05;77.18;98947.75;4978108;28;20480;-88
2023/06/28 01:22:09;;;;;;;7.85;4.38;;;;;;;19.10;76.15;98955.75;4979995;28;20014;-88
2023/06/28 01:24:36;;;;;;;8.38;4.53;;;;;;;19.01;76.48;98964.03;4979622;28;20377;-89
2023/06/28 01:27:01;;;;;;;7.85;3.97;;;;;;;19.02;76.78;98964.81;4962901;28;20058;-89
2023/06/28 01:29:26;;;;;;;5.90;4.05;;;;;;;18.94;76.55;98955.56;4975541;28;20091;-88
2023/06/28 01:31:53;;;;;;;6.65;4.22;;;;;;;18.93;76.50;98973.88;4960230;28;20015;-88
2023/06/28 01:34:19;;;;;;;8.35;3.90;;;;;;;18.84;76.30;98959.50;4960083;28;20050;-88
2023/06/28 01:36:44;;;;;;;8.40;4.13;;;;;;;18.79;76.78;98967.91;4959595;28;20077;-88
2023/06/28 01:39:10;;;;;;;7.70;4.05;;;;;;;18.71;77.44;98972.25;4962169;28;20030;-88
2023/06/28 01:41:35;;;;;;;9.18;4.22;;;;;;;18.68;77.04;98953.84;4945760;28;20484;-88
2023/06/28 01:44:01;;;;;;;8.13;4.55;;;;;;;18.67;77.45;98957.69;4946077;28;20491;-88
2023/06/28 01:46:26;;;;;;;6.93;4.50;;;;;;;18.68;77.49;98974.84;4946344;28;20049;-88
2023/06/28 01:48:52;;;;;;;9.50;4.30;;;;;;;18.67;77.64;98967.78;4946319;28;20460;-88
2023/06/28 01:51:17;;;;;;;8.52;4.20;;;;;;;18.58;77.43;98971.38;4946101;28;20026;-88
2023/06/28 01:53:43;;;;;;;7.60;4.20;;;;;;;18.60;77.81;98981.16;4945946;28;20049;-88
2023/06/28 01:56:10;;;;;;;7.28;4.45;;;;;;;18.50;77.98;98966.78;4945714;28;20018;-88
2023/06/28 01:58:36;;;;;;;9.73;4.63;;;;;;;18.57;77.75;98977.97;4946429;28;20022;-88
2023/06/28 02:01:01;;;;;;;7.90;4.10;;;;;;;18.49;78.02;98972.56;4962162;28;20404;-88
2023/06/28 02:03:27;;;;;;;5.18;4.05;;;;;;;18.48;77.67;98976.44;4962180;28;20450;-88
2023/06/28 02:05:52;;;;;;;5.50;4.10;;;;;;;18.57;77.75;98982.63;4946735;28;20023;-88
2023/06/28 02:08:17;;;;;;;7.85;3.95;;;;;;;18.54;77.54;98989.53;4966496;28;20022;-88
2023/06/28 02:10:44;;;;;;;7.38;4.40;;;;;;;18.46;77.58;98990.38;4950234;28;20021;-88
2023/06/28 02:13:09;;;;;;;7.03;4.30;;;;;;;18.43;77.62;98990.25;4966151;28;20034;-89
2023/06/28 02:15:35;;;;;;;9.85;4.50;;;;;;;18.44;77.37;98979.00;4966725;28;20550;-88
2023/06/28 02:18:01;;;;;;;9.27;4.70;;;;;;;18.46;77.45;98997.78;4950297;28;20082;-88
2023/06/28 02:20:26;;;;;;;9.60;4.50;;;;;;;18.51;77.46;98995.66;4966058;28;20122;-88
2023/06/28 02:22:52;;;;;;;17.20;4.95;;;;;;;18.58;77.24;98986.94;4949856;28;20389;-89
2023/06/28 02:25:17;;;;;;;8.48;4.45;;;;;;;18.67;76.87;98995.06;4966461;28;20030;-88
2023/06/28 02:27:43;;;;;;;9.57;4.60;;;;;;;18.58;77.84;98993.19;4949777;28;20022;-88
2023/06/28 02:30:08;;;;;;;8.43;4.53;;;;;;;18.51;77.47;98992.94;4966418;28;20413;-88
2023/06/28 02:32:34;;;;;;;8.57;4.70;;;;;;;18.56;76.64;98989.22;4949983;28;20022;-88
2023/06/28 02:34:59;;;;;;;9.63;4.78;;;;;;;18.58;76.72;98989.69;4968525;28;20054;-88
2023/06/28 02:37:25;;;;;;;6.38;4.35;;;;;;;18.53;76.82;98984.41;4965919;28;20030;-88
2023/06/28 02:39:50;;;;;;;11.52;4.50;;;;;;;18.54;76.83;98986.81;4965162;28;20088;-88
2023/06/28 02:42:16;;;;;;;10.18;4.15;;;;;;;18.47;77.19;98999.34;4963232;28;20053;-88
2023/06/28 02:44:42;;;;;;;11.77;4.47;;;;;;;18.46;77.23;98995.84;4950459;28;20111;-88
2023/06/28 02:47:07;;;;;;;5.78;4.15;;;;;;;18.57;75.54;99010.69;4942820;28;20026;-88
2023/06/28 02:49:33;;;;;;;6.20;3.58;;;;;;;18.50;73.49;98995.97;4952623;28;20101;-88
2023/06/28 02:51:58;;;;;;;4.95;4.22;;;;;;;18.54;73.44;99003.16;4963402;28;20027;-89
2023/06/28 02:54:23;;;;;;;6.63;4.25;;;;;;;18.55;74.64;99012.13;4965800;28;20039;-88
2023/06/28 02:56:51;;;;;;;7.95;4.60;;;;;;;18.52;74.25;99007.34;4962416;28;20421;-88
2023/06/28 02:59:16;;;;;;;8.63;4.60;;;;;;;18.53;74.81;99006.22;4950559;28;20456;-88
2023/06/28 03:01:42;;;;;;;5.13;4.22;;;;;;;18.51;75.66;99011.19;4973331;28;20031;-89
2023/06/28 03:04:07;;;;;;;7.18;4.30;;;;;;;18.47;75.96;99013.00;4961921;28;20031;-88
2023/06/28 03:06:34;;;;;;;11.25;4.68;;;;;;;18.45;76.64;99016.06;4930303;28;20397;-88
2023/06/28 03:08:59;;;;;;;7.00;4.20;;;;;;;18.32;76.78;99011.63;4930578;28;20023;-89
2023/06/28 03:11:25;;;;;;;9.18;4.57;;;;;;;18.29;77.18;99018.53;4930154;28;20555;-88
2023/06/28 03:13:50;;;;;;;7.55;4.28;;;;;;;18.32;77.14;99026.09;4945447;28;20034;-88
2023/06/28 03:16:15;;;;;;;8.13;4.65;;;;;;;18.30;76.77;99006.53;4945841;28;20019;-89
2023/06/28 03:18:41;;;;;;;11.70;4.68;;;;;;;18.32;76.76;99022.53;4946575;28;20023;-88
2023/06/28 03:21:06;;;;;;;10.00;4.35;;;;;;;18.31;76.72;99013.56;4930710;28;20122;-88
2023/06/28 03:23:32;;;;;;;13.20;4.60;;;;;;;18.26;76.83;99011.03;4946897;28;20555;-88
2023/06/28 03:25:57;;;;;;;7.22;4.40;;;;;;;18.26;77.43;99019.22;4946152;28;20027;-88
2023/06/28 03:28:23;;;;;;;12.13;4.63;;;;;;;18.25;77.18;99014.88;4945971;28;20023;-89
2023/06/28 03:30:48;;;;;;;5.20;4.32;;;;;;;18.29;76.87;99026.72;4929314;28;20023;-89
2023/06/28 03:33:14;;;;;;;7.40;4.15;;;;;;;18.26;76.58;99035.56;4952043;28;20408;-89
2023/06/28 03:35:39;;;;;;;10.73;4.60;;;;;;;18.24;76.54;99026.91;4956450;28;20060;-89
2023/06/28 03:38:05;;;;;;;9.93;4.72;;;;;;;18.19;77.12;99024.38;4981201;28;20022;-89
2023/06/28 03:40:30;;;;;;;6.15;3.92;;;;;;;18.27;76.92;99039.09;4981501;28;20034;-89
2023/06/28 03:42:56;;;;;;;8.75;4.28;;;;;;;18.21;75.84;99029.50;4964815;28;20488;-90
2023/06/28 03:45:21;;;;;;;9.93;4.30;;;;;;;18.25;76.93;99033.94;4981325;28;20037;-89
2023/06/28 03:47:51;;;;;;;12.18;6.25;;;;;;;18.26;76.02;99030.13;4981031;28;20026;-90
2023/06/28 03:50:16;;;;;;;8.00;5.45;;;;;;;18.31;75.70;99037.31;4965754;28;20045;-91
2023/06/28 03:52:42;;;;;;;13.90;6.00;;;;;;;18.44;75.26;99043.66;4980288;28;20084;-91
2023/06/28 03:55:08;;;;;;;9.18;5.78;;;;;;;18.53;74.77;99037.03;4983272;28;20026;-92
2023/06/28 03:57:33;;;;;;;11.35;5.75;;;;;;;18.49;74.77;99043.44;4981553;28;20027;-91
2023/06/28 03:59:59;;;;;;;12.45;5.90;;;;;;;18.52;75.86;99049.06;4965514;28;20651;-91
2023/06/28 04:02:25;;;;;;;15.38;7.85;;;;;;;18.48;76.05;99041.88;4980539;28;20029;-90
2023/06/28 04:04:50;;;;;;;14.00;7.43;;;;;;;18.49;75.39;99040.72;4964813;28;20077;-90
2023/06/28 04:07:23;;;;;;;34.83;10.43;;;;;;;18.53;75.66;99047.13;4961751;28;20026;-91
2023/06/28 04:09:49;;;;;;;14.88;8.38;;;;;;;18.48;75.43;99044.59;4961794;28;20520;-92
2023/06/28 04:12:14;;;;;;;15.60;9.45;;;;;;;18.49;76.54;99057.91;4992826;28;20014;-90
2023/06/28 04:14:40;;;;;;;22.73;11.27;;;;;;;18.49;76.37;99051.63;4997070;28;20034;-93
2023/06/28 04:17:06;;;;;;;23.00;10.20;;;;;;;18.43;77.03;99059.22;4980176;28;20026;-91
2023/06/28 04:19:32;;;;;;;73.85;12.90;;;;;;;18.35;77.50;99051.88;4981181;28;20045;-91
2023/06/28 04:21:59;;;;;;;14.88;6.95;;;;;;;18.43;76.81;99055.66;4980848;28;20026;-93
2023/06/28 04:24:24;;;;;;;15.93;8.70;;;;;;;18.49;76.36;99062.53;4982566;28;20488;-92
2023/06/28 04:26:50;;;;;;;12.82;8.20;;;;;;;18.51;76.65;99055.66;4964605;28;20026;-91
2023/06/28 04:29:15;;;;;;;10.95;7.45;;;;;;;18.68;75.45;99067.59;4965998;28;20022;-92
2023/06/28 04:31:41;;;;;;;15.18;8.68;;;;;;;18.76;74.58;99062.06;4982068;28;20053;-92
2023/06/28 04:34:12;;;;;;;16.85;8.65;;;;;;;18.74;74.84;99061.59;4981854;28;20104;-94
2023/06/28 04:36:39;;;;;;;16.60;8.60;;;;;;;18.71;74.06;99061.47;4965105;28;20050;-92
2023/06/28 04:39:05;;;;;;;15.00;7.65;;;;;;;18.73;74.55;99059.19;4965304;28;20022;-90
2023/06/28 04:41:33;;;;;;;15.85;7.18;;;;;;;18.86;73.59;99054.66;4979965;28;20034;-92
2023/06/28 04:43:58;;;;;;;14.25;7.30;;;;;;;18.96;74.15;99074.16;4980301;28;20033;-91
2023/06/28 04:46:26;;;;;;;21.75;12.10;;;;;;;18.92;73.24;99075.16;4980957;28;20404;-91
2023/06/28 04:48:52;;;;;;;11.77;7.13;;;;;;;19.01;74.01;99067.72;4980260;28;20041;-92
2023/06/28 04:51:18;;;;;;;14.80;7.63;;;;;;;19.04;74.87;99088.09;4963678;28;20018;-91
2023/06/28 04:53:43;;;;;;;12.68;7.50;;;;;;;18.97;74.23;99077.69;4977390;28;20504;-92
2023/06/28 04:56:12;;;;;;;13.25;7.03;;;;;;;19.01;73.80;99075.91;4969904;28;20037;-91
2023/06/28 04:58:37;;;;;;;12.07;7.05;;;;;;;19.04;73.49;99080.69;4962303;28;20038;-92
2023/06/28 05:01:06;;;;;;;15.95;8.57;;;;;;;19.17;73.39;99087.84;4963612;28;20023;-92
2023/06/28 05:03:31;;;;;;;16.15;8.23;;;;;;;19.15;72.84;99078.34;4977695;28;20043;-91
2023/06/28 05:05:57;;;;;;;18.73;8.63;;;;;;;18.98;72.89;99062.91;4993321;28;20072;-91
2023/06/28 05:08:22;;;;;;;17.95;8.93;;;;;;;19.18;73.04;99077.72;4993322;28;20027;-92
2023/06/28 05:10:48;;;;;;;13.88;9.23;;;;;;;19.19;72.66;99060.19;4992756;28;20026;-95
2023/06/28 05:13:13;;;;;;;17.80;9.68;;;;;;;19.57;71.75;99073.69;4959076;29;20532;-92
2023/06/28 05:15:39;;;;;;;14.73;9.40;;;;;;;19.71;71.42;99083.53;4958532;28;20065;-91
2023/06/28 05:21:31;;;;;;;17.38;9.05;;;;;;;19.93;69.98;99088.59;4926080;28;20076;-91
2023/06/28 05:23:56;;;;;;;12.98;8.15;;;;;;;19.90;70.42;99074.81;4944817;29;20035;-95
2023/06/28 05:26:51;;;;;;;11.18;7.88;;;;;;;20.11;68.69;99074.75;4934872;29;20035;-95
2023/06/28 05:29:41;;;;;;;15.70;7.68;;;;;;;20.17;68.49;99067.91;4978768;28;20039;-95
2023/06/28 05:32:07;;;;;;;13.68;7.93;;;;;;;20.48;67.42;99085.72;4962411;28;20457;-89
2023/06/28 05:34:55;;;;;;;14.70;8.32;;;;;;;20.64;67.99;99092.13;4940508;28;20039;-93
2023/06/28 05:37:20;;;;;;;19.35;8.73;;;;;;;20.66;67.96;99084.38;4957380;28;20070;-91
2023/06/28 05:39:46;;;;;;;13.90;8.20;;;;;;;20.91;66.37;99076.94;4942501;28;20035;-96
2023/06/28 05:42:34;;;;;;;16.02;8.35;;;;;;;20.93;66.80;99082.06;4951114;29;20050;-94
2023/06/28 05:45:16;;;;;;;18.80;8.05;;;;;;;20.96;66.95;99075.94;4946987;29;20047;-96
2023/06/28 05:47:44;;;;;;;11.80;7.90;;;;;;;21.20;65.72;99075.06;4930433;29;20039;-95
2023/06/28 05:50:10;;;;;;;12.75;5.70;;;;;;;21.49;64.58;99071.22;4932741;29;20102;-95
2023/06/28 05:52:42;;;;;;;15.35;6.50;;;;;;;21.82;64.28;99072.09;4956410;28;20039;-96
2023/06/28 05:55:14;;;;;;;14.07;5.72;;;;;;;22.07;62.44;99070.78;4912352;29;20040;-95
2023/06/28 05:57:40;;;;;;;11.55;5.05;;;;;;;22.23;61.83;99059.03;4902124;29;20100;-96
2023/06/28 06:00:08;;;;;;;9.63;5.85;;;;;;;22.48;60.70;99070.66;4898439;29;20538;-96
2023/06/28 06:02:37;;;;;;;21.10;13.55;;;;;;;22.74;59.23;99067.31;4898167;29;20044;-91
2023/06/28 06:05:03;;;;;;;11.48;5.50;;;;;;;22.91;58.45;99066.94;4925687;29;20063;-95
2023/06/28 06:11:02;;;;;;;10.40;6.00;;;;;;;23.38;58.30;99070.69;4926134;29;20029;-92
2023/06/28 06:13:27;;;;;;;9.63;5.70;;;;;;;23.46;57.04;99055.16;4893589;29;20273;-92
2023/06/28 06:15:53;;;;;;;8.60;5.35;;;;;;;23.70;55.77;99059.50;4931691;29;20046;-92
2023/06/28 06:18:21;;;;;;;7.55;4.60;;;;;;;23.67;55.08;99057.50;4968210;28;20054;-90
2023/06/28 06:21:07;;;;;;;;;;;;;;;;;;;;;
2023/06/28 06:23:41;;;;;;;9.55;4.90;;;;;;;23.83;56.22;99062.94;4990584;28;20038;-92
2023/06/28 06:26:06;;;;;;;14.43;8.85;;;;;;;24.00;54.85;99054.22;4989381;28;20023;-91
2023/06/28 06:28:32;;;;;;;12.23;5.65;;;;;;;24.15;54.19;99058.78;4987433;28;20037;-94
2023/06/28 06:31:00;;;;;;;5.45;4.10;;;;;;;24.26;53.87;99063.66;4988719;28;20030;-95
2023/06/28 06:33:26;;;;;;;16.27;4.45;;;;;;;24.21;52.88;99060.06;4994008;28;20054;-96
2023/06/28 06:39:05;;;;;;;17.33;13.57;;;;;;;24.10;53.40;99053.59;4975774;28;20118;-93
2023/06/28 06:41:31;;;;;;;71.55;55.83;;;;;;;24.06;53.85;99051.94;4939794;28;20043;-94
2023/06/28 06:43:57;;;;;;;9.30;5.13;;;;;;;24.07;53.45;99043.31;4960242;28;20019;-94
2023/06/28 06:46:23;;;;;;;8.32;5.07;;;;;;;24.25;54.26;99053.84;4952090;28;20030;-93
2023/06/28 06:48:50;;;;;;;7.18;4.50;;;;;;;24.44;52.45;99067.50;4936460;28;20054;-93
2023/06/28 06:51:18;;;;;;;6.93;4.45;;;;;;;24.30;52.62;99054.31;4950844;28;20041;-94
2023/06/28 06:53:46;;;;;;;31.35;20.75;;;;;;;24.03;53.05;99023.22;4952568;28;20380;-93
2023/06/28 06:56:11;;;;;;;17.35;9.75;;;;;;;24.26;52.72;99017.72;4953956;28;20030;-95
2023/06/28 06:58:37;;;;;;;4.88;4.10;;;;;;;24.24;52.41;99021.97;4953883;28;20022;-96
2023/06/28 07:01:03;;;;;;;7.93;4.10;;;;;;;24.58;51.72;99047.69;4936949;28;20041;-94
2023/06/28 07:03:30;;;;;;;11.50;4.40;;;;;;;24.52;52.39;99029.91;4942536;28;20038;-94
2023/06/28 07:05:59;;;;;;;8.07;4.35;;;;;;;24.64;51.60;99045.44;4956717;28;20027;-95
2023/06/28 07:08:24;;;;;;;8.30;4.43;;;;;;;24.63;51.39;99039.09;4940313;28;20062;-95
2023/06/28 07:10:50;;;;;;;7.63;5.20;;;;;;;24.58;51.15;99015.44;4939408;28;20026;-96
2023/06/28 07:13:20;;;;;;;8.00;4.38;;;;;;;24.77;50.98;99022.78;4960739;28;20031;-95
2023/06/28 07:15:48;;;;;;;7.97;4.43;;;;;;;24.94;50.15;99048.97;4962507;28;20035;-96
2023/06/28 07:18:23;;;;;;;9.35;4.35;;;;;;;25.05;50.35;99043.63;4954316;28;20038;-96
2023/06/28 07:20:51;;;;;;;7.25;4.93;;;;;;;25.14;50.34;99033.13;4952251;28;20030;-95
2023/06/28 07:23:17;;;;;;;8.32;4.47;;;;;;;25.27;49.56;99035.66;4952881;28;20027;-95
2023/06/28 07:25:43;;;;;;;5.82;4.43;;;;;;;25.23;49.55;99034.81;4948640;28;20022;-90
2023/06/28 07:28:08;;;;;;;8.63;4.63;;;;;;;25.46;49.58;99040.19;4947663;28;20460;-90
2023/06/28 07:30:53;;;;;;;22.10;18.77;;;;;;;25.55;48.33;99022.19;4964143;28;20026;-89
2023/06/28 07:33:21;;;;;;;9.40;4.20;;;;;;;25.77;48.43;99036.19;4946900;28;20030;-91
2023/06/28 07:35:46;;;;;;;9.05;4.47;;;;;;;25.68;48.90;99032.97;4960826;28;20173;-91
2023/06/28 07:38:12;;;;;;;11.85;4.15;;;;;;;25.81;48.37;99037.81;4970538;28;20401;-91
2023/06/28 07:40:37;;;;;;;6.25;3.70;;;;;;;25.87;47.36;99031.97;4969717;28;20130;-90
2023/06/28 07:43:03;;;;;;;8.90;4.00;;;;;;;26.00;47.40;99039.63;4968922;28;20049;-91
2023/06/28 07:45:29;;;;;;;8.45;4.72;;;;;;;25.94;46.80;99021.00;5000737;28;20065;-92
2023/06/28 07:47:57;;;;;;;6.07;3.65;;;;;;;25.87;45.71;99024.47;4984968;28;20350;-92
2023/06/28 07:50:33;;;;;;;5.72;3.97;;;;;;;26.03;45.96;99040.03;4986257;28;20034;-90
2023/06/28 07:52:59;;;;;;;7.45;3.88;;;;;;;25.80;44.93;99036.25;4990974;28;20043;-91
2023/06/28 07:55:27;;;;;;;7.57;4.28;;;;;;;25.86;44.60;99028.41;4962226;28;20039;-90
2023/06/28 07:57:58;;;;;;;5.25;3.65;;;;;;;26.00;44.55;99027.75;4932336;28;20050;-92
2023/06/28 08:00:48;;;;;;;6.72;3.97;;;;;;;26.07;44.66;99027.06;4962265;28;20035;-92
2023/06/28 08:03:16;;;;;;;7.22;3.75;;;;;;;26.06;45.50;99029.00;4967264;28;20156;-90
2023/06/28 08:05:42;;;;;;;5.68;3.70;;;;;;;26.09;45.26;99036.53;4966814;28;20021;-91
2023/06/28 08:08:07;;;;;;;6.20;3.72;;;;;;;26.06;45.48;99029.00;4970312;28;20421;-90
2023/06/28 08:10:33;;;;;;;8.48;4.22;;;;;;;26.04;46.20;99014.78;4969691;28;20015;-90
2023/06/28 08:13:02;;;;;;;8.45;6.35;;;;;;;26.04;45.71;99005.72;4953025;28;20038;-90
2023/06/28 08:15:27;;;;;;;7.20;4.78;;;;;;;26.07;45.01;99010.50;4947585;28;20069;-92
2023/06/28 08:17:53;;;;;;;9.60;3.88;;;;;;;26.16;45.16;99017.25;4947084;28;20516;-91
2023/06/28 08:20:18;;;;;;;6.25;3.60;;;;;;;26.13;44.47;99003.47;4931866;28;20027;-92
2023/06/28 08:22:44;;;;;;;6.03;3.65;;;;;;;26.21;45.36;99007.84;4949059;28;20050;-91
2023/06/28 08:25:17;;;;;;;5.68;3.33;;;;;;;26.35;44.25;99002.41;4981325;28;20038;-91
2023/06/28 08:27:44;;;;;;;5.20;3.45;;;;;;;26.35;43.73;99010.69;4952481;28;20050;-91
2023/06/28 08:30:10;;;;;;;4.80;3.50;;;;;;;26.49;43.28;99021.06;4966473;28;20181;-89
2023/06/28 08:32:40;;;;;;;7.57;3.90;;;;;;;26.48;43.28;99007.63;4966825;28;20031;-91
2023/06/28 08:35:07;;;;;;;8.43;4.13;;;;;;;26.46;43.67;98999.75;4965635;28;20030;-89
2023/06/28 08:37:34;;;;;;;5.60;3.25;;;;;;;26.69;42.59;99021.63;4959401;28;20030;-96
2023/06/28 08:40:01;;;;;;;4.88;3.17;;;;;;;26.60;43.02;98999.88;4964131;28;20066;-94
2023/06/28 08:42:33;;;;;;;5.20;3.97;;;;;;;26.57;41.44;98991.56;4953040;28;20037;-92
2023/06/28 08:44:59;;;;;;;5.03;3.47;;;;;;;26.57;42.12;98997.06;4957014;28;20087;-93
2023/06/28 08:47:35;;;;;;;5.68;3.70;;;;;;;26.66;41.95;99016.06;4968820;28;20107;-92
2023/06/28 08:50:09;;;;;;;5.53;3.45;;;;;;;26.53;40.55;99010.81;4991027;28;20408;-95
2023/06/28 08:52:35;;;;;;;6.72;3.38;;;;;;;26.62;41.71;99038.13;4975470;28;20041;-95
2023/06/28 08:55:09;;;;;;;6.45;3.55;;;;;;;26.49;43.06;99007.25;4971357;28;20058;-93
2023/06/28 08:57:35;;;;;;;5.55;3.33;;;;;;;26.61;43.37;99020.78;4950128;28;20026;-90
2023/06/28 09:00:00;;;;;;;5.13;3.50;;;;;;;26.41;43.91;99011.91;4949111;28;20050;-92
2023/06/28 09:02:30;;;;;;;5.97;3.47;;;;;;;26.28;44.16;99020.91;4962887;28;20054;-92
2023/06/28 09:04:57;;;;;;;5.53;3.55;;;;;;;26.16;44.75;98994.41;4966169;28;20161;-92
2023/06/28 09:07:23;;;;;;;4.70;3.55;;;;;;;26.37;44.95;99016.63;4946559;28;20030;-92
2023/06/28 09:09:51;;;;;;;5.82;3.55;;;;;;;26.20;45.42;99020.84;4949333;28;20035;-92
2023/06/28 09:12:17;;;;;;;5.10;3.65;;;;;;;26.23;45.05;99000.00;4941560;28;20036;-92
2023/06/28 09:14:44;;;;;;;7.25;3.72;;;;;;;26.45;45.57;99020.25;4963544;28;20010;-93
2023/06/28 09:17:11;;;;;;;5.32;3.15;;;;;;;26.55;45.23;99024.25;4987644;28;20042;-91
2023/06/28 09:19:44;;;;;;;6.40;3.35;;;;;;;26.59;44.54;99030.63;4974761;28;20038;-89
2023/06/28 09:22:15;;;;;;;4.25;3.42;;;;;;;26.47;44.13;99019.84;4977780;28;20109;-90
2023/06/28 09:24:48;;;;;;;8.55;3.60;;;;;;;26.53;44.82;98999.78;4969878;28;20061;-90
2023/06/28 09:27:18;;;;;;;4.25;3.35;;;;;;;26.68;44.30;99002.66;4967486;28;20113;-91
2023/06/28 09:29:43;;;;;;;6.90;3.70;;;;;;;26.65;44.18;98995.16;4945572;28;20026;-92
2023/06/28 09:32:22;;;;;;;5.40;3.40;;;;;;;26.81;44.01;99014.94;4968623;28;20045;-92
2023/06/28 09:35:00;;;;;;;;;;;;;;;;;;;;;
2023/06/28 09:37:39;;;;;;;5.22;3.28;;;;;;;26.65;43.76;99009.75;4980904;28;20125;-94
2023/06/28 09:40:14;;;;;;;5.32;3.10;;;;;;;26.69;44.20;99018.84;4983558;28;20018;-91
2023/06/28 09:42:47;;;;;;;3.60;2.92;;;;;;;26.65;43.55;99004.22;4964996;28;20046;-90
2023/06/28 09:45:35;;;;;;;6.95;4.28;;;;;;;26.63;44.11;99014.09;4961384;28;20118;-91
2023/06/28 09:48:02;;;;;;;4.22;3.15;;;;;;;26.58;43.54;99013.28;4995743;28;20046;-92
2023/06/28 09:50:47;;;;;;;6.30;3.72;;;;;;;26.57;44.25;99019.16;4966965;28;20377;-92
2023/06/28 09:53:17;;;;;;;5.40;3.45;;;;;;;26.49;44.11;99006.47;4965493;28;20026;-91
2023/06/28 09:55:47;;;;;;;6.72;3.90;;;;;;;26.45;44.55;99008.41;4965972;28;20524;-89
2023/06/28 09:58:22;;;;;;;6.82;3.60;;;;;;;26.54;44.33;99006.09;4983514;28;20033;-96
2023/06/28 10:01:14;;;;;;;6.70;3.35;;;;;;;26.60;43.50;99021.16;4985841;28;20033;-96
2023/06/28 10:03:49;;;;;;;6.85;3.40;;;;;;;26.50;43.04;99005.28;5000854;28;20053;-96
2023/06/28 10:06:15;;;;;;;4.35;3.05;;;;;;;26.47;43.37;99004.09;4985883;28;20042;-96
2023/06/28 10:08:41;;;;;;;5.55;2.80;;;;;;;26.59;43.52;99000.25;4982047;28;20053;-95
2023/06/28 10:11:10;;;;;;;6.13;3.03;;;;;;;26.54;43.09;99001.38;4969193;28;20049;-95
2023/06/28 10:13:46;;;;;;;4.72;3.20;;;;;;;26.60;42.33;98988.81;4986033;28;20026;-94
2023/06/28 10:16:21;;;;;;;3.88;2.92;;;;;;;26.88;42.28;99015.00;4983114;28;20060;-90
2023/06/28 10:18:47;;;;;;;5.50;2.90;;;;;;;26.81;41.83;99001.13;4979602;28;20050;-89
2023/06/28 10:21:12;;;;;;;4.13;2.83;;;;;;;26.79;41.45;99020.06;4961435;28;20497;-90
2023/06/28 10:23:39;;;;;;;3.75;2.63;;;;;;;26.69;41.68;99001.50;4961845;28;20057;-91
2023/06/28 10:26:07;;;;;;;9.43;3.10;;;;;;;26.79;41.71;98998.78;4984722;28;20477;-91
2023/06/28 10:28:35;;;;;;;3.90;2.90;;;;;;;26.91;41.34;99002.38;4981568;28;20033;-93
2023/06/28 10:31:23;;;;;;;4.93;2.90;;;;;;;26.85;41.94;98995.63;4981705;28;20046;-93
2023/06/28 10:34:00;;;;;;;5.07;2.72;;;;;;;26.85;41.47;99007.47;4968245;28;20043;-94
2023/06/28 10:36:35;;;;;;;4.35;2.78;;;;;;;26.82;41.18;99013.78;4963964;28;20061;-96
2023/06/28 10:39:09;;;;;;;3.90;2.78;;;;;;;27.02;40.87;99008.75;4933120;28;20259;-93
2023/06/28 10:41:35;;;;;;;3.50;2.50;;;;;;;27.18;39.72;99027.75;4931502;29;20150;-95
2023/06/28 10:44:04;;;;;;;3.47;2.65;;;;;;;26.96;40.18;99010.31;4965260;29;20466;-94
2023/06/28 10:46:36;;;;;;;6.93;2.55;;;;;;;26.85;40.07;99007.47;4948403;29;20070;-95
2023/06/28 10:49:03;;;;;;;4.88;3.10;;;;;;;27.01;41.26;99032.03;4948052;29;20585;-94
2023/06/28 10:51:34;;;;;;;6.07;2.30;;;;;;;26.76;41.11;99013.34;4951374;29;20019;-96
2023/06/28 10:54:07;;;;;;;5.95;2.53;;;;;;;26.89;40.81;99032.38;4951510;29;20043;-90
2023/06/28 10:57:04;;;;;;;4.50;3.00;;;;;;;27.02;39.89;99037.19;4962857;29;20536;-90
2023/06/28 10:59:29;;;;;;;5.05;2.50;;;;;;;27.21;39.70;99043.59;4980408;28;20039;-90
2023/06/28 11:01:56;;;;;;;8.38;2.50;;;;;;;27.11;39.87;99025.75;4951844;28;20628;-89
2023/06/28 11:07:16;;;;;;;4.35;2.40;;;;;;;26.98;39.85;99030.84;4978766;28;20519;-89
2023/06/28 11:10:01;;;;;;;4.70;3.50;;;;;;;26.93;39.80;99039.50;4965427;28;20054;-91
2023/06/28 11:12:29;;;;;;;3.42;2.67;;;;;;;27.01;40.47;99029.28;4983363;28;20027;-89
2023/06/28 11:15:11;;;;;;;4.07;2.28;;;;;;;27.18;39.82;99044.34;4966969;28;20034;-90
2023/06/28 11:17:37;;;;;;;5.28;2.33;;;;;;;27.40;39.56;99042.50;4966808;28;20460;-92
2023/06/28 11:20:13;;;;;;;3.55;2.00;;;;;;;27.31;39.59;99048.38;5001182;28;20137;-91
2023/06/28 11:22:52;;;;;;;3.78;2.25;;;;;;;27.35;39.15;99043.66;4983458;28;20034;-90
2023/06/28 11:25:21;;;;;;;5.65;2.17;;;;;;;27.60;38.10;99046.50;4973724;28;20065;-91
2023/06/28 11:27:47;;;;;;;5.13;2.10;;;;;;;27.58;37.14;99050.81;4972900;28;20043;-90
2023/06/28 11:30:13;;;;;;;3.40;2.22;;;;;;;27.86;37.24;99050.13;4968708;28;20058;-91
2023/06/28 11:32:39;;;;;;;2.80;2.10;;;;;;;27.70;36.77;99052.44;4973131;28;20026;-91
2023/06/28 11:35:08;;;;;;;4.90;2.25;;;;;;;27.76;36.16;99061.94;4986680;28;20030;-90
2023/06/28 11:37:33;;;;;;;2.65;1.90;;;;;;;27.92;35.22;99056.88;4997978;28;20066;-93
2023/06/28 11:40:02;;;;;;;8.90;6.80;;;;;;;27.86;35.22;99061.19;4967834;28;20096;-93
2023/06/28 11:42:28;;;;;;;4.53;2.10;;;;;;;27.82;36.04;99071.44;4968185;28;20092;-93
2023/06/28 11:45:14;;;;;;;4.40;2.50;;;;;;;27.75;35.82;99072.22;4967515;28;20508;-93
2023/06/28 11:47:49;;;;;;;3.65;2.50;;;;;;;27.81;35.70;99078.16;4986370;28;20496;-93
2023/06/28 11:54:06;;;;;;;3.85;2.30;;;;;;;27.52;36.43;99085.59;5001262;28;20096;-94
2023/06/28 12:00:14;;;;;;;5.47;2.10;;;;;;;26.95;37.57;99067.53;4963057;29;20039;-95